Ana Sayfa
METAR-TAF:

METAR-TAF

Havaalanları :

Sullivan County International Airport

Monticello, New York, Amerika Birleşik Devletleri

Enlem: 41-42N, Boylam: 074-48W, yükseklik: 428 m

Güncel hava durumu gözlemi

Rapor saat 15:56 UTC de 24 dakika önce yapıldı.
Rüzgar batıdan 8 kt
Sıcaklık 15°C
Nem 55%
Basınç 1017 hPa
Görüş mesafesi: 16.1 km
3600 ft yükseklikte parçalı bulutlu
5500 ft yükseklikte çok bulutlu

METAR: KMSV 051556Z AUTO 28008KT 10SM SCT036 OVC055 15/06 A3002 RMK AO2 SLP166 T01500061

Saat: 12:20 (16:20 UTC)


TAF: eksik

4.000'den fazla havaalanı için hava durumu gözlemleri ve tahminleri (METAR ve TAF raporları).

Kullanılabilir istasyonlar harita üzerinde sarı ve kırmızı noktalarla gösterilir.

İstasyonun adını görmek için fareyi noktanın üzerinde gezdirin.

Sonrasında hava gözlem ve tahminlerini görmek için tıklayın.

Haritayı değiştirmek için: yaklaştırmak için siyah artı işaretli yeşil düğmeye ve uzaklaştırmak için de eksi işaretli düğmeye hızla tıklayın; bitişik haritalar için yeşil okları kullanın.


METAR-TAF: